sensor_id;sensor_type;location;lat;lon;timestamp;P1;durP1;ratioP1;P2;durP2;ratioP2
13085;SDS011;6609;49.882;8.664;2023-11-21T00:00:01;3.80;;;1.60;;
13085;SDS011;6609;49.882;8.664;2023-11-21T00:02:28;2.83;;;1.33;;
13085;SDS011;6609;49.882;8.664;2023-11-21T00:04:55;10.17;;;2.23;;
13085;SDS011;6609;49.882;8.664;2023-11-21T00:07:23;4.80;;;1.93;;
13085;SDS011;6609;49.882;8.664;2023-11-21T00:09:50;4.20;;;1.80;;
13085;SDS011;6609;49.882;8.664;2023-11-21T00:12:17;3.80;;;1.50;;
13085;SDS011;6609;49.882;8.664;2023-11-21T00:14:45;5.20;;;2.03;;
13085;SDS011;6609;49.882;8.664;2023-11-21T00:17:12;2.90;;;1.90;;
13085;SDS011;6609;49.882;8.664;2023-11-21T00:19:39;7.40;;;2.50;;
13085;SDS011;6609;49.882;8.664;2023-11-21T00:22:07;4.77;;;1.77;;
13085;SDS011;6609;49.882;8.664;2023-11-21T00:24:36;4.73;;;1.80;;
13085;SDS011;6609;49.882;8.664;2023-11-21T00:27:03;2.63;;;1.70;;
13085;SDS011;6609;49.882;8.664;2023-11-21T00:29:31;4.50;;;1.60;;
13085;SDS011;6609;49.882;8.664;2023-11-21T00:31:57;5.87;;;1.53;;
13085;SDS011;6609;49.882;8.664;2023-11-21T00:34:24;4.50;;;1.60;;
13085;SDS011;6609;49.882;8.664;2023-11-21T00:36:51;2.87;;;2.00;;
13085;SDS011;6609;49.882;8.664;2023-11-21T00:39:18;4.57;;;1.63;;
13085;SDS011;6609;49.882;8.664;2023-11-21T00:41:47;4.60;;;2.03;;
13085;SDS011;6609;49.882;8.664;2023-11-21T00:44:14;4.00;;;1.83;;
13085;SDS011;6609;49.882;8.664;2023-11-21T00:46:41;6.03;;;1.70;;
13085;SDS011;6609;49.882;8.664;2023-11-21T00:49:08;5.47;;;2.13;;
13085;SDS011;6609;49.882;8.664;2023-11-21T00:51:35;3.00;;;1.77;;
13085;SDS011;6609;49.882;8.664;2023-11-21T00:54:02;3.67;;;1.20;;
13085;SDS011;6609;49.882;8.664;2023-11-21T00:56:29;1.87;;;1.30;;
13085;SDS011;6609;49.882;8.664;2023-11-21T00:58:58;3.13;;;1.73;;
13085;SDS011;6609;49.882;8.664;2023-11-21T01:01:24;4.63;;;1.70;;
13085;SDS011;6609;49.882;8.664;2023-11-21T01:03:53;3.27;;;1.40;;
13085;SDS011;6609;49.882;8.664;2023-11-21T01:06:20;3.43;;;1.73;;
13085;SDS011;6609;49.882;8.664;2023-11-21T01:08:47;3.57;;;1.23;;
13085;SDS011;6609;49.882;8.664;2023-11-21T01:11:13;2.70;;;1.67;;
13085;SDS011;6609;49.882;8.664;2023-11-21T01:13:41;3.27;;;1.70;;
13085;SDS011;6609;49.882;8.664;2023-11-21T01:16:11;3.30;;;2.07;;
13085;SDS011;6609;49.882;8.664;2023-11-21T01:18:37;6.17;;;1.80;;
13085;SDS011;6609;49.882;8.664;2023-11-21T01:21:05;4.73;;;1.77;;
13085;SDS011;6609;49.882;8.664;2023-11-21T01:23:32;6.47;;;2.40;;
13085;SDS011;6609;49.882;8.664;2023-11-21T01:26:00;2.97;;;1.90;;
13085;SDS011;6609;49.882;8.664;2023-11-21T01:28:27;4.13;;;1.93;;
13085;SDS011;6609;49.882;8.664;2023-11-21T01:30:54;5.13;;;2.00;;
13085;SDS011;6609;49.882;8.664;2023-11-21T01:33:23;2.50;;;1.70;;
13085;SDS011;6609;49.882;8.664;2023-11-21T01:35:50;5.87;;;2.77;;
13085;SDS011;6609;49.882;8.664;2023-11-21T01:38:20;4.33;;;2.70;;
13085;SDS011;6609;49.882;8.664;2023-11-21T01:40:47;4.07;;;2.27;;
13085;SDS011;6609;49.882;8.664;2023-11-21T01:43:14;4.93;;;2.40;;
13085;SDS011;6609;49.882;8.664;2023-11-21T01:45:42;3.50;;;2.80;;
13085;SDS011;6609;49.882;8.664;2023-11-21T01:48:10;6.77;;;3.43;;
13085;SDS011;6609;49.882;8.664;2023-11-21T01:50:39;5.77;;;3.30;;
13085;SDS011;6609;49.882;8.664;2023-11-21T01:53:05;5.40;;;2.70;;
13085;SDS011;6609;49.882;8.664;2023-11-21T01:55:32;5.17;;;2.77;;
13085;SDS011;6609;49.882;8.664;2023-11-21T01:58:00;4.27;;;2.90;;
13085;SDS011;6609;49.882;8.664;2023-11-21T02:00:26;5.57;;;3.07;;
13085;SDS011;6609;49.882;8.664;2023-11-21T02:02:54;4.63;;;3.13;;
13085;SDS011;6609;49.882;8.664;2023-11-21T02:05:21;6.13;;;2.97;;
13085;SDS011;6609;49.882;8.664;2023-11-21T02:07:50;6.33;;;3.70;;
13085;SDS011;6609;49.882;8.664;2023-11-21T02:10:17;4.67;;;3.33;;
13085;SDS011;6609;49.882;8.664;2023-11-21T02:12:47;3.67;;;2.90;;
13085;SDS011;6609;49.882;8.664;2023-11-21T02:15:15;6.63;;;3.00;;
13085;SDS011;6609;49.882;8.664;2023-11-21T02:17:45;4.57;;;3.10;;
13085;SDS011;6609;49.882;8.664;2023-11-21T02:20:16;4.50;;;2.90;;
13085;SDS011;6609;49.882;8.664;2023-11-21T02:22:43;4.83;;;2.97;;
13085;SDS011;6609;49.882;8.664;2023-11-21T02:25:15;6.97;;;2.93;;
13085;SDS011;6609;49.882;8.664;2023-11-21T02:27:42;7.97;;;3.63;;
13085;SDS011;6609;49.882;8.664;2023-11-21T02:30:13;6.17;;;3.80;;
13085;SDS011;6609;49.882;8.664;2023-11-21T02:32:41;7.77;;;3.60;;
13085;SDS011;6609;49.882;8.664;2023-11-21T02:35:08;6.73;;;3.70;;
13085;SDS011;6609;49.882;8.664;2023-11-21T02:37:37;14.30;;;3.37;;
13085;SDS011;6609;49.882;8.664;2023-11-21T02:40:08;5.70;;;3.30;;
13085;SDS011;6609;49.882;8.664;2023-11-21T02:42:37;7.73;;;4.20;;
13085;SDS011;6609;49.882;8.664;2023-11-21T02:45:04;5.80;;;3.67;;
13085;SDS011;6609;49.882;8.664;2023-11-21T02:47:32;5.23;;;3.33;;
13085;SDS011;6609;49.882;8.664;2023-11-21T02:49:59;5.77;;;3.70;;
13085;SDS011;6609;49.882;8.664;2023-11-21T02:52:26;7.10;;;3.73;;
13085;SDS011;6609;49.882;8.664;2023-11-21T02:54:53;7.80;;;4.17;;
13085;SDS011;6609;49.882;8.664;2023-11-21T02:57:21;5.73;;;3.77;;
13085;SDS011;6609;49.882;8.664;2023-11-21T02:59:48;7.40;;;3.73;;
13085;SDS011;6609;49.882;8.664;2023-11-21T03:02:15;6.23;;;3.20;;
13085;SDS011;6609;49.882;8.664;2023-11-21T03:04:42;9.10;;;3.80;;
13085;SDS011;6609;49.882;8.664;2023-11-21T03:07:09;5.90;;;3.70;;
13085;SDS011;6609;49.882;8.664;2023-11-21T03:09:36;6.50;;;3.93;;
13085;SDS011;6609;49.882;8.664;2023-11-21T03:12:04;9.47;;;4.10;;
13085;SDS011;6609;49.882;8.664;2023-11-21T03:14:32;6.50;;;4.07;;
13085;SDS011;6609;49.882;8.664;2023-11-21T03:16:59;6.87;;;4.97;;
13085;SDS011;6609;49.882;8.664;2023-11-21T03:19:27;9.90;;;4.53;;
13085;SDS011;6609;49.882;8.664;2023-11-21T03:21:54;8.77;;;4.47;;
13085;SDS011;6609;49.882;8.664;2023-11-21T03:24:21;6.87;;;3.90;;
13085;SDS011;6609;49.882;8.664;2023-11-21T03:26:48;5.93;;;4.03;;
13085;SDS011;6609;49.882;8.664;2023-11-21T03:29:16;6.27;;;3.93;;
13085;SDS011;6609;49.882;8.664;2023-11-21T03:31:44;7.03;;;4.10;;
13085;SDS011;6609;49.882;8.664;2023-11-21T03:34:15;5.83;;;3.83;;
13085;SDS011;6609;49.882;8.664;2023-11-21T03:36:50;6.77;;;4.10;;
13085;SDS011;6609;49.882;8.664;2023-11-21T03:39:17;6.60;;;4.93;;
13085;SDS011;6609;49.882;8.664;2023-11-21T03:41:44;7.27;;;5.00;;
13085;SDS011;6609;49.882;8.664;2023-11-21T03:44:11;6.20;;;4.40;;
13085;SDS011;6609;49.882;8.664;2023-11-21T03:46:38;8.23;;;4.33;;
13085;SDS011;6609;49.882;8.664;2023-11-21T03:49:06;7.37;;;4.53;;
13085;SDS011;6609;49.882;8.664;2023-11-21T03:51:33;7.23;;;4.23;;
13085;SDS011;6609;49.882;8.664;2023-11-21T03:54:00;5.03;;;3.80;;
13085;SDS011;6609;49.882;8.664;2023-11-21T03:56:28;7.87;;;5.07;;
13085;SDS011;6609;49.882;8.664;2023-11-21T03:58:55;8.00;;;3.67;;
13085;SDS011;6609;49.882;8.664;2023-11-21T04:01:22;6.17;;;4.57;;
13085;SDS011;6609;49.882;8.664;2023-11-21T04:03:49;5.67;;;4.00;;
13085;SDS011;6609;49.882;8.664;2023-11-21T04:06:18;7.10;;;4.53;;
13085;SDS011;6609;49.882;8.664;2023-11-21T04:08:44;7.03;;;5.07;;
13085;SDS011;6609;49.882;8.664;2023-11-21T04:11:12;7.17;;;4.77;;
13085;SDS011;6609;49.882;8.664;2023-11-21T04:13:40;6.87;;;4.60;;
13085;SDS011;6609;49.882;8.664;2023-11-21T04:16:08;7.27;;;4.80;;
13085;SDS011;6609;49.882;8.664;2023-11-21T04:18:35;11.07;;;5.83;;
13085;SDS011;6609;49.882;8.664;2023-11-21T04:21:03;7.60;;;5.97;;
13085;SDS011;6609;49.882;8.664;2023-11-21T04:23:31;7.60;;;4.97;;
13085;SDS011;6609;49.882;8.664;2023-11-21T04:25:58;6.73;;;4.93;;
13085;SDS011;6609;49.882;8.664;2023-11-21T04:28:27;9.80;;;5.90;;
13085;SDS011;6609;49.882;8.664;2023-11-21T04:30:53;7.33;;;5.23;;
13085;SDS011;6609;49.882;8.664;2023-11-21T04:33:20;8.70;;;4.97;;
13085;SDS011;6609;49.882;8.664;2023-11-21T04:35:47;9.53;;;4.80;;
13085;SDS011;6609;49.882;8.664;2023-11-21T04:38:14;7.17;;;5.50;;
13085;SDS011;6609;49.882;8.664;2023-11-21T04:40:43;12.10;;;6.17;;
13085;SDS011;6609;49.882;8.664;2023-11-21T04:43:10;12.07;;;5.43;;
13085;SDS011;6609;49.882;8.664;2023-11-21T04:45:37;9.37;;;5.93;;
13085;SDS011;6609;49.882;8.664;2023-11-21T04:48:06;7.87;;;5.57;;
13085;SDS011;6609;49.882;8.664;2023-11-21T04:50:33;8.40;;;5.13;;
13085;SDS011;6609;49.882;8.664;2023-11-21T04:53:00;11.30;;;7.27;;
13085;SDS011;6609;49.882;8.664;2023-11-21T04:55:27;16.63;;;11.33;;
13085;SDS011;6609;49.882;8.664;2023-11-21T04:57:55;10.50;;;6.47;;
13085;SDS011;6609;49.882;8.664;2023-11-21T05:00:22;7.17;;;5.30;;
13085;SDS011;6609;49.882;8.664;2023-11-21T05:02:49;9.27;;;5.67;;
13085;SDS011;6609;49.882;8.664;2023-11-21T05:05:17;9.70;;;4.47;;
13085;SDS011;6609;49.882;8.664;2023-11-21T05:07:44;6.13;;;4.23;;
13085;SDS011;6609;49.882;8.664;2023-11-21T05:10:11;5.13;;;4.20;;
13085;SDS011;6609;49.882;8.664;2023-11-21T05:12:40;4.83;;;3.63;;
13085;SDS011;6609;49.882;8.664;2023-11-21T05:15:09;6.60;;;3.37;;
13085;SDS011;6609;49.882;8.664;2023-11-21T05:17:37;4.17;;;2.90;;
13085;SDS011;6609;49.882;8.664;2023-11-21T05:20:07;3.73;;;2.90;;
13085;SDS011;6609;49.882;8.664;2023-11-21T05:22:35;3.20;;;2.90;;
13085;SDS011;6609;49.882;8.664;2023-11-21T05:25:02;3.40;;;2.17;;
13085;SDS011;6609;49.882;8.664;2023-11-21T05:27:30;3.03;;;2.23;;
13085;SDS011;6609;49.882;8.664;2023-11-21T05:29:57;2.70;;;1.90;;
13085;SDS011;6609;49.882;8.664;2023-11-21T05:32:25;2.57;;;2.10;;
13085;SDS011;6609;49.882;8.664;2023-11-21T05:34:53;3.10;;;1.57;;
13085;SDS011;6609;49.882;8.664;2023-11-21T05:37:20;2.57;;;2.20;;
13085;SDS011;6609;49.882;8.664;2023-11-21T05:39:48;8.83;;;5.70;;
13085;SDS011;6609;49.882;8.664;2023-11-21T05:42:15;4.97;;;3.10;;
13085;SDS011;6609;49.882;8.664;2023-11-21T05:44:42;3.77;;;2.20;;
13085;SDS011;6609;49.882;8.664;2023-11-21T05:47:09;2.87;;;1.87;;
13085;SDS011;6609;49.882;8.664;2023-11-21T05:49:38;2.60;;;1.47;;
13085;SDS011;6609;49.882;8.664;2023-11-21T05:52:05;3.77;;;1.50;;
13085;SDS011;6609;49.882;8.664;2023-11-21T05:54:32;3.57;;;1.60;;
13085;SDS011;6609;49.882;8.664;2023-11-21T05:56:59;1.57;;;1.33;;
13085;SDS011;6609;49.882;8.664;2023-11-21T05:59:26;2.00;;;1.70;;
13085;SDS011;6609;49.882;8.664;2023-11-21T06:01:53;3.37;;;1.40;;
13085;SDS011;6609;49.882;8.664;2023-11-21T06:04:20;4.17;;;1.60;;
13085;SDS011;6609;49.882;8.664;2023-11-21T06:06:51;2.27;;;1.80;;
13085;SDS011;6609;49.882;8.664;2023-11-21T06:09:18;1.70;;;1.40;;
13085;SDS011;6609;49.882;8.664;2023-11-21T06:11:46;1.77;;;1.43;;
13085;SDS011;6609;49.882;8.664;2023-11-21T06:14:13;3.90;;;1.57;;
13085;SDS011;6609;49.882;8.664;2023-11-21T06:16:43;2.07;;;1.20;;
13085;SDS011;6609;49.882;8.664;2023-11-21T06:19:10;1.53;;;1.27;;
13085;SDS011;6609;49.882;8.664;2023-11-21T06:21:38;1.33;;;1.07;;
13085;SDS011;6609;49.882;8.664;2023-11-21T06:24:07;1.20;;;1.10;;
13085;SDS011;6609;49.882;8.664;2023-11-21T06:26:33;2.10;;;1.73;;
13085;SDS011;6609;49.882;8.664;2023-11-21T06:29:00;2.40;;;1.27;;
13085;SDS011;6609;49.882;8.664;2023-11-21T06:31:28;2.10;;;1.33;;
13085;SDS011;6609;49.882;8.664;2023-11-21T06:33:57;1.80;;;1.40;;
13085;SDS011;6609;49.882;8.664;2023-11-21T06:36:24;1.30;;;1.10;;
13085;SDS011;6609;49.882;8.664;2023-11-21T06:38:51;3.53;;;1.20;;
13085;SDS011;6609;49.882;8.664;2023-11-21T06:41:20;2.70;;;1.70;;
13085;SDS011;6609;49.882;8.664;2023-11-21T06:43:47;2.13;;;1.30;;
13085;SDS011;6609;49.882;8.664;2023-11-21T06:46:14;1.33;;;1.23;;
13085;SDS011;6609;49.882;8.664;2023-11-21T06:48:42;1.70;;;1.40;;
13085;SDS011;6609;49.882;8.664;2023-11-21T06:51:10;2.67;;;1.33;;
13085;SDS011;6609;49.882;8.664;2023-11-21T06:53:38;2.83;;;2.30;;
13085;SDS011;6609;49.882;8.664;2023-11-21T06:56:05;2.97;;;1.63;;
13085;SDS011;6609;49.882;8.664;2023-11-21T06:58:43;2.90;;;1.90;;
13085;SDS011;6609;49.882;8.664;2023-11-21T07:01:11;3.27;;;1.90;;
13085;SDS011;6609;49.882;8.664;2023-11-21T07:03:38;2.47;;;1.77;;
13085;SDS011;6609;49.882;8.664;2023-11-21T07:06:06;2.20;;;1.83;;
13085;SDS011;6609;49.882;8.664;2023-11-21T07:08:33;3.50;;;2.00;;
13085;SDS011;6609;49.882;8.664;2023-11-21T07:11:00;2.93;;;1.93;;
13085;SDS011;6609;49.882;8.664;2023-11-21T07:13:28;8.77;;;2.67;;
13085;SDS011;6609;49.882;8.664;2023-11-21T07:15:57;4.67;;;2.37;;
13085;SDS011;6609;49.882;8.664;2023-11-21T07:18:24;3.60;;;2.40;;
13085;SDS011;6609;49.882;8.664;2023-11-21T07:20:51;3.77;;;2.90;;
13085;SDS011;6609;49.882;8.664;2023-11-21T07:23:18;3.93;;;3.13;;
13085;SDS011;6609;49.882;8.664;2023-11-21T07:25:47;5.77;;;3.43;;
13085;SDS011;6609;49.882;8.664;2023-11-21T07:28:14;5.13;;;3.00;;
13085;SDS011;6609;49.882;8.664;2023-11-21T07:30:41;6.77;;;4.27;;
13085;SDS011;6609;49.882;8.664;2023-11-21T07:33:10;7.10;;;3.90;;
13085;SDS011;6609;49.882;8.664;2023-11-21T07:35:37;8.50;;;4.10;;
13085;SDS011;6609;49.882;8.664;2023-11-21T07:38:04;7.33;;;4.50;;
13085;SDS011;6609;49.882;8.664;2023-11-21T07:40:31;9.90;;;4.50;;
13085;SDS011;6609;49.882;8.664;2023-11-21T07:42:58;7.57;;;4.73;;
13085;SDS011;6609;49.882;8.664;2023-11-21T07:45:25;8.03;;;5.00;;
13085;SDS011;6609;49.882;8.664;2023-11-21T07:47:53;8.47;;;5.47;;
13085;SDS011;6609;49.882;8.664;2023-11-21T07:50:22;8.07;;;4.73;;
13085;SDS011;6609;49.882;8.664;2023-11-21T07:52:49;7.33;;;4.93;;
13085;SDS011;6609;49.882;8.664;2023-11-21T07:55:15;9.63;;;4.40;;
13085;SDS011;6609;49.882;8.664;2023-11-21T07:57:42;7.57;;;5.13;;
13085;SDS011;6609;49.882;8.664;2023-11-21T08:00:09;8.47;;;5.27;;
13085;SDS011;6609;49.882;8.664;2023-11-21T08:02:37;10.20;;;5.83;;
13085;SDS011;6609;49.882;8.664;2023-11-21T08:05:04;8.93;;;5.53;;
13085;SDS011;6609;49.882;8.664;2023-11-21T08:07:34;8.13;;;5.90;;
13085;SDS011;6609;49.882;8.664;2023-11-21T08:10:01;8.70;;;4.83;;
13085;SDS011;6609;49.882;8.664;2023-11-21T08:12:29;11.13;;;6.07;;
13085;SDS011;6609;49.882;8.664;2023-11-21T08:14:58;10.10;;;5.87;;
13085;SDS011;6609;49.882;8.664;2023-11-21T08:17:25;7.30;;;5.50;;
13085;SDS011;6609;49.882;8.664;2023-11-21T08:19:52;9.13;;;6.10;;
13085;SDS011;6609;49.882;8.664;2023-11-21T08:22:19;10.53;;;6.10;;
13085;SDS011;6609;49.882;8.664;2023-11-21T08:24:48;9.90;;;6.13;;
13085;SDS011;6609;49.882;8.664;2023-11-21T08:27:15;10.93;;;6.63;;
13085;SDS011;6609;49.882;8.664;2023-11-21T08:29:42;10.83;;;6.33;;
13085;SDS011;6609;49.882;8.664;2023-11-21T08:32:09;10.90;;;6.03;;
13085;SDS011;6609;49.882;8.664;2023-11-21T08:34:36;7.93;;;6.23;;
13085;SDS011;6609;49.882;8.664;2023-11-21T08:37:05;9.03;;;5.60;;
13085;SDS011;6609;49.882;8.664;2023-11-21T08:39:31;8.60;;;5.33;;
13085;SDS011;6609;49.882;8.664;2023-11-21T08:42:00;8.17;;;5.43;;
13085;SDS011;6609;49.882;8.664;2023-11-21T08:44:27;10.80;;;5.93;;
13085;SDS011;6609;49.882;8.664;2023-11-21T08:46:55;9.70;;;5.73;;
13085;SDS011;6609;49.882;8.664;2023-11-21T08:49:22;7.53;;;5.47;;
13085;SDS011;6609;49.882;8.664;2023-11-21T08:51:52;11.63;;;6.80;;
13085;SDS011;6609;49.882;8.664;2023-11-21T08:54:20;8.47;;;5.63;;
13085;SDS011;6609;49.882;8.664;2023-11-21T08:56:47;9.43;;;5.30;;
13085;SDS011;6609;49.882;8.664;2023-11-21T08:59:16;7.27;;;5.40;;
13085;SDS011;6609;49.882;8.664;2023-11-21T09:01:43;8.50;;;5.17;;
13085;SDS011;6609;49.882;8.664;2023-11-21T09:04:10;8.50;;;5.70;;
13085;SDS011;6609;49.882;8.664;2023-11-21T09:06:37;9.90;;;5.57;;
13085;SDS011;6609;49.882;8.664;2023-11-21T09:09:04;9.83;;;5.07;;
13085;SDS011;6609;49.882;8.664;2023-11-21T09:11:33;7.87;;;4.97;;
13085;SDS011;6609;49.882;8.664;2023-11-21T09:14:00;7.20;;;4.80;;
13085;SDS011;6609;49.882;8.664;2023-11-21T09:16:29;11.97;;;5.03;;
13085;SDS011;6609;49.882;8.664;2023-11-21T09:18:56;9.27;;;4.10;;
13085;SDS011;6609;49.882;8.664;2023-11-21T09:21:24;7.23;;;4.43;;
13085;SDS011;6609;49.882;8.664;2023-11-21T09:23:52;7.47;;;3.83;;
13085;SDS011;6609;49.882;8.664;2023-11-21T09:26:19;7.57;;;4.10;;
13085;SDS011;6609;49.882;8.664;2023-11-21T09:28:46;8.07;;;3.70;;
13085;SDS011;6609;49.882;8.664;2023-11-21T09:31:13;6.67;;;3.13;;
13085;SDS011;6609;49.882;8.664;2023-11-21T09:33:43;7.97;;;3.60;;
13085;SDS011;6609;49.882;8.664;2023-11-21T09:36:13;6.90;;;3.40;;
13085;SDS011;6609;49.882;8.664;2023-11-21T09:38:40;4.13;;;3.03;;
13085;SDS011;6609;49.882;8.664;2023-11-21T09:41:09;7.43;;;3.13;;
13085;SDS011;6609;49.882;8.664;2023-11-21T09:43:45;5.07;;;3.00;;
13085;SDS011;6609;49.882;8.664;2023-11-21T09:46:13;6.00;;;4.07;;
13085;SDS011;6609;49.882;8.664;2023-11-21T09:48:46;7.43;;;3.60;;
13085;SDS011;6609;49.882;8.664;2023-11-21T09:51:17;5.50;;;3.50;;
13085;SDS011;6609;49.882;8.664;2023-11-21T09:53:46;5.43;;;4.23;;
13085;SDS011;6609;49.882;8.664;2023-11-21T09:56:17;8.23;;;3.77;;
13085;SDS011;6609;49.882;8.664;2023-11-21T09:58:50;5.73;;;3.90;;
13085;SDS011;6609;49.882;8.664;2023-11-21T10:01:19;6.63;;;4.30;;
13085;SDS011;6609;49.882;8.664;2023-11-21T10:03:49;6.63;;;4.37;;
13085;SDS011;6609;49.882;8.664;2023-11-21T10:06:16;8.83;;;5.33;;
13085;SDS011;6609;49.882;8.664;2023-11-21T10:08:45;9.83;;;5.73;;
13085;SDS011;6609;49.882;8.664;2023-11-21T10:11:12;7.50;;;4.47;;
13085;SDS011;6609;49.882;8.664;2023-11-21T10:13:41;9.73;;;5.27;;
13085;SDS011;6609;49.882;8.664;2023-11-21T10:16:09;8.67;;;5.80;;
13085;SDS011;6609;49.882;8.664;2023-11-21T10:18:37;8.77;;;5.33;;
13085;SDS011;6609;49.882;8.664;2023-11-21T10:21:07;7.00;;;4.90;;
13085;SDS011;6609;49.882;8.664;2023-11-21T10:23:35;8.27;;;5.30;;
13085;SDS011;6609;49.882;8.664;2023-11-21T10:26:02;9.23;;;6.00;;
13085;SDS011;6609;49.882;8.664;2023-11-21T10:28:30;5.77;;;4.63;;
13085;SDS011;6609;49.882;8.664;2023-11-21T10:30:57;11.80;;;5.73;;
13085;SDS011;6609;49.882;8.664;2023-11-21T10:33:27;6.73;;;4.37;;
13085;SDS011;6609;49.882;8.664;2023-11-21T10:35:54;7.40;;;5.07;;
13085;SDS011;6609;49.882;8.664;2023-11-21T10:38:22;8.57;;;5.13;;
13085;SDS011;6609;49.882;8.664;2023-11-21T10:40:51;8.83;;;4.83;;
13085;SDS011;6609;49.882;8.664;2023-11-21T10:43:20;8.23;;;4.53;;
13085;SDS011;6609;49.882;8.664;2023-11-21T10:45:51;8.47;;;4.93;;
13085;SDS011;6609;49.882;8.664;2023-11-21T10:48:18;9.37;;;5.07;;
13085;SDS011;6609;49.882;8.664;2023-11-21T10:50:46;6.23;;;4.23;;
13085;SDS011;6609;49.882;8.664;2023-11-21T10:53:13;9.33;;;4.73;;
13085;SDS011;6609;49.882;8.664;2023-11-21T10:55:41;6.13;;;3.97;;
13085;SDS011;6609;49.882;8.664;2023-11-21T10:58:09;6.60;;;4.03;;
13085;SDS011;6609;49.882;8.664;2023-11-21T11:00:39;7.20;;;3.73;;
13085;SDS011;6609;49.882;8.664;2023-11-21T11:03:08;8.70;;;3.77;;
13085;SDS011;6609;49.882;8.664;2023-11-21T11:05:39;9.53;;;4.80;;
13085;SDS011;6609;49.882;8.664;2023-11-21T11:08:07;7.90;;;4.07;;
13085;SDS011;6609;49.882;8.664;2023-11-21T11:10:35;12.30;;;5.40;;
13085;SDS011;6609;49.882;8.664;2023-11-21T11:13:03;5.23;;;3.50;;
13085;SDS011;6609;49.882;8.664;2023-11-21T11:15:32;4.97;;;3.40;;
13085;SDS011;6609;49.882;8.664;2023-11-21T11:18:00;9.03;;;2.60;;
13085;SDS011;6609;49.882;8.664;2023-11-21T11:20:30;5.77;;;3.87;;
13085;SDS011;6609;49.882;8.664;2023-11-21T11:23:10;6.77;;;2.50;;
13085;SDS011;6609;49.882;8.664;2023-11-21T11:25:45;5.53;;;2.47;;
13085;SDS011;6609;49.882;8.664;2023-11-21T11:28:21;4.10;;;2.40;;
13085;SDS011;6609;49.882;8.664;2023-11-21T11:30:57;5.63;;;2.50;;
13085;SDS011;6609;49.882;8.664;2023-11-21T11:33:31;4.17;;;2.90;;
13085;SDS011;6609;49.882;8.664;2023-11-21T11:36:05;5.80;;;2.40;;
13085;SDS011;6609;49.882;8.664;2023-11-21T11:38:36;6.07;;;2.30;;
13085;SDS011;6609;49.882;8.664;2023-11-21T11:41:04;7.73;;;2.70;;
13085;SDS011;6609;49.882;8.664;2023-11-21T11:43:35;5.87;;;2.47;;
13085;SDS011;6609;49.882;8.664;2023-11-21T11:46:09;6.23;;;3.13;;
13085;SDS011;6609;49.882;8.664;2023-11-21T11:48:38;7.57;;;3.17;;
13085;SDS011;6609;49.882;8.664;2023-11-21T11:51:06;4.50;;;2.20;;
13085;SDS011;6609;49.882;8.664;2023-11-21T11:53:37;4.60;;;2.60;;
13085;SDS011;6609;49.882;8.664;2023-11-21T11:56:19;6.70;;;2.77;;
13085;SDS011;6609;49.882;8.664;2023-11-21T11:58:52;4.70;;;2.90;;
13085;SDS011;6609;49.882;8.664;2023-11-21T12:01:19;5.27;;;3.00;;
13085;SDS011;6609;49.882;8.664;2023-11-21T12:06:47;6.87;;;3.03;;
13085;SDS011;6609;49.882;8.664;2023-11-21T12:09:17;7.43;;;3.73;;
13085;SDS011;6609;49.882;8.664;2023-11-21T12:11:44;5.97;;;3.00;;
13085;SDS011;6609;49.882;8.664;2023-11-21T12:14:13;7.90;;;3.50;;
13085;SDS011;6609;49.882;8.664;2023-11-21T12:16:41;8.30;;;4.47;;
13085;SDS011;6609;49.882;8.664;2023-11-21T12:19:09;7.40;;;2.93;;
13085;SDS011;6609;49.882;8.664;2023-11-21T12:21:36;8.60;;;3.83;;
13085;SDS011;6609;49.882;8.664;2023-11-21T12:24:05;7.33;;;3.30;;
13085;SDS011;6609;49.882;8.664;2023-11-21T12:26:35;8.13;;;2.87;;
13085;SDS011;6609;49.882;8.664;2023-11-21T12:29:02;10.00;;;3.43;;
13085;SDS011;6609;49.882;8.664;2023-11-21T12:31:33;7.30;;;3.33;;
13085;SDS011;6609;49.882;8.664;2023-11-21T12:34:01;6.80;;;3.47;;
13085;SDS011;6609;49.882;8.664;2023-11-21T12:36:28;5.53;;;2.87;;
13085;SDS011;6609;49.882;8.664;2023-11-21T12:38:55;8.57;;;3.10;;
13085;SDS011;6609;49.882;8.664;2023-11-21T12:41:23;9.33;;;3.20;;
13085;SDS011;6609;49.882;8.664;2023-11-21T12:43:49;5.40;;;3.37;;
13085;SDS011;6609;49.882;8.664;2023-11-21T12:46:16;6.07;;;3.07;;
13085;SDS011;6609;49.882;8.664;2023-11-21T12:48:46;8.30;;;3.13;;
13085;SDS011;6609;49.882;8.664;2023-11-21T12:51:13;5.20;;;3.10;;
13085;SDS011;6609;49.882;8.664;2023-11-21T12:53:41;9.20;;;3.70;;
13085;SDS011;6609;49.882;8.664;2023-11-21T12:56:09;6.10;;;3.80;;
13085;SDS011;6609;49.882;8.664;2023-11-21T12:58:36;7.60;;;2.80;;
13085;SDS011;6609;49.882;8.664;2023-11-21T13:01:05;6.90;;;4.00;;
13085;SDS011;6609;49.882;8.664;2023-11-21T13:03:37;7.40;;;3.80;;
13085;SDS011;6609;49.882;8.664;2023-11-21T13:06:06;8.00;;;3.83;;
13085;SDS011;6609;49.882;8.664;2023-11-21T13:08:33;9.30;;;3.67;;
13085;SDS011;6609;49.882;8.664;2023-11-21T13:11:04;6.40;;;3.53;;
13085;SDS011;6609;49.882;8.664;2023-11-21T13:13:32;7.67;;;3.47;;
13085;SDS011;6609;49.882;8.664;2023-11-21T13:15:59;7.47;;;3.50;;
13085;SDS011;6609;49.882;8.664;2023-11-21T13:18:26;5.63;;;3.87;;
13085;SDS011;6609;49.882;8.664;2023-11-21T13:20:56;9.60;;;3.63;;
13085;SDS011;6609;49.882;8.664;2023-11-21T13:23:26;8.70;;;3.93;;
13085;SDS011;6609;49.882;8.664;2023-11-21T13:25:54;10.17;;;5.10;;
13085;SDS011;6609;49.882;8.664;2023-11-21T13:28:21;7.53;;;4.27;;
13085;SDS011;6609;49.882;8.664;2023-11-21T13:30:49;7.10;;;3.30;;
13085;SDS011;6609;49.882;8.664;2023-11-21T13:33:17;9.27;;;4.07;;
13085;SDS011;6609;49.882;8.664;2023-11-21T13:35:47;7.77;;;3.70;;
13085;SDS011;6609;49.882;8.664;2023-11-21T13:38:17;5.37;;;3.40;;
13085;SDS011;6609;49.882;8.664;2023-11-21T13:40:49;9.97;;;3.80;;
13085;SDS011;6609;49.882;8.664;2023-11-21T13:43:18;6.87;;;3.70;;
13085;SDS011;6609;49.882;8.664;2023-11-21T13:45:47;6.20;;;3.77;;
13085;SDS011;6609;49.882;8.664;2023-11-21T13:48:16;5.97;;;3.50;;
13085;SDS011;6609;49.882;8.664;2023-11-21T13:50:50;7.77;;;3.70;;
13085;SDS011;6609;49.882;8.664;2023-11-21T13:53:23;9.10;;;4.23;;
13085;SDS011;6609;49.882;8.664;2023-11-21T13:55:52;4.07;;;3.40;;
13085;SDS011;6609;49.882;8.664;2023-11-21T13:58:20;7.83;;;3.87;;
13085;SDS011;6609;49.882;8.664;2023-11-21T14:00:51;5.37;;;3.47;;
13085;SDS011;6609;49.882;8.664;2023-11-21T14:03:22;7.90;;;4.20;;
13085;SDS011;6609;49.882;8.664;2023-11-21T14:05:57;6.60;;;3.73;;
13085;SDS011;6609;49.882;8.664;2023-11-21T14:08:26;7.80;;;4.10;;
13085;SDS011;6609;49.882;8.664;2023-11-21T14:10:55;5.77;;;3.80;;
13085;SDS011;6609;49.882;8.664;2023-11-21T14:13:22;9.73;;;4.07;;
13085;SDS011;6609;49.882;8.664;2023-11-21T14:15:49;10.67;;;3.90;;
13085;SDS011;6609;49.882;8.664;2023-11-21T14:18:22;5.03;;;3.37;;
13085;SDS011;6609;49.882;8.664;2023-11-21T14:20:56;7.47;;;3.40;;
13085;SDS011;6609;49.882;8.664;2023-11-21T14:23:23;8.23;;;3.83;;
13085;SDS011;6609;49.882;8.664;2023-11-21T14:25:50;9.87;;;3.67;;
13085;SDS011;6609;49.882;8.664;2023-11-21T14:28:18;11.63;;;3.80;;
13085;SDS011;6609;49.882;8.664;2023-11-21T14:30:45;6.80;;;3.47;;
13085;SDS011;6609;49.882;8.664;2023-11-21T14:33:12;9.97;;;4.00;;
13085;SDS011;6609;49.882;8.664;2023-11-21T14:35:41;7.23;;;3.80;;
13085;SDS011;6609;49.882;8.664;2023-11-21T14:38:08;8.13;;;3.97;;
13085;SDS011;6609;49.882;8.664;2023-11-21T14:40:35;9.07;;;4.13;;
13085;SDS011;6609;49.882;8.664;2023-11-21T14:43:03;8.73;;;3.60;;
13085;SDS011;6609;49.882;8.664;2023-11-21T14:45:32;6.67;;;3.17;;
13085;SDS011;6609;49.882;8.664;2023-11-21T14:48:00;4.97;;;3.20;;
13085;SDS011;6609;49.882;8.664;2023-11-21T14:50:32;7.63;;;3.77;;
13085;SDS011;6609;49.882;8.664;2023-11-21T14:53:15;7.67;;;3.33;;
13085;SDS011;6609;49.882;8.664;2023-11-21T14:55:50;6.30;;;3.80;;
13085;SDS011;6609;49.882;8.664;2023-11-21T14:58:22;6.23;;;3.10;;
13085;SDS011;6609;49.882;8.664;2023-11-21T15:00:53;6.60;;;3.30;;
13085;SDS011;6609;49.882;8.664;2023-11-21T15:03:24;4.43;;;3.40;;
13085;SDS011;6609;49.882;8.664;2023-11-21T15:06:09;6.40;;;3.50;;
13085;SDS011;6609;49.882;8.664;2023-11-21T15:08:48;5.30;;;3.83;;